METAR Data
IDs: Format: Raw Decoded Include TAF

Data at: 2212 UTC 02 Aug 2021

KSMX 022151Z 31011KT 10SM CLR 23/14 A3006 RMK AO2 SLP180 T02280139
KSMX 022051Z 30012KT 10SM CLR 23/14 A3006 RMK AO2 SLP181 T02280139 58013
KSMX 021951Z 29009KT 10SM CLR 22/14 A3008 RMK AO2 SLP186 T02220139
KSMX 021851Z 30011KT 10SM CLR 22/14 A3010 RMK AO2 SLP193 T02220139
KSMX 021751Z 29005KT 10SM CLR 21/13 A3010 RMK AO2 SLP194 T02110133 10211 20100 58003
KSMX 021651Z 26004KT 10SM CLR 19/13 A3011 RMK AO2 SLP196 T01890128
KSMX 021551Z 27003KT 10SM CLR 17/13 A3011 RMK AO2 SLP198 T01720128
KSMX 021451Z 00000KT 10SM CLR 15/13 A3011 RMK AO2 SLP197 T01500128 51011
KSMX 021351Z 17004KT 10SM CLR 11/09 A3010 RMK AO2 SLP195 T01060094
KSMX 021251Z 16003KT 10SM CLR 10/08 A3009 RMK AO2 SLP190 T01000083
KSMX 021151Z AUTO 14003KT 10SM CLR 11/09 A3008 RMK AO2 SLP186 T01060089 10150 20106 55000
KSMX 021051Z AUTO 00000KT 10SM CLR 12/09 A3007 RMK AO2 SLP183 T01170094
KSMX 020951Z AUTO 17003KT 10SM CLR 11/09 A3007 RMK AO2 SLP183 T01110089
KSMX 020851Z AUTO 15003KT 10SM CLR 12/10 A3008 RMK AO2 SLP186 T01220100 56005
KSMX 020751Z AUTO 16003KT 10SM CLR 13/11 A3008 RMK AO2 SLP186 T01330106 402330106
KSMX 020651Z AUTO 00000KT 10SM CLR 14/12 A3008 RMK AO2 SLP188 T01390117
KSMX 020551Z AUTO 00000KT 10SM CLR 15/12 A3009 RMK AO2 SLP191 T01500122 10217 20144 50007
KSMX 020451Z AUTO 32003KT 10SM CLR 15/12 A3010 RMK AO2 SLP193 T01500122
KSMX 020351Z AUTO 32005KT 10SM CLR 16/12 A3008 RMK AO2 SLP188 T01560122
KSMX 020251Z 32007KT 10SM CLR 18/12 A3007 RMK AO2 SLP184 T01780117 53001
KSMX 020151Z 32010KT 10SM CLR 19/12 A3007 RMK AO2 SLP184 T01940122
KSMX 020051Z 31010KT 10SM CLR 21/13 A3007 RMK AO2 SLP182 T02110128
KSMX 012351Z 31012KT 10SM CLR 22/13 A3007 RMK AO2 SLP183 T02170128 10233 20206 58007
KSMX 012251Z 31011KT 10SM CLR 22/13 A3008 RMK AO2 SLP186 T02220133
KSMX 012151Z 31012KT 10SM CLR 23/13 A3008 RMK AO2 SLP187 T02280133
KSMX 012051Z 31011KT 10SM CLR 22/13 A3009 RMK AO2 SLP190 T02220133 58004
KSMX 011951Z 31011KT 10SM CLR 22/14 A3009 RMK AO2 SLP191 T02220139
KSMX 011851Z 30009KT 10SM CLR 22/14 A3010 RMK AO2 SLP193 T02220139
KSMX 011751Z VRB04KT 10SM CLR 21/13 A3010 RMK AO2 SLP194 T02060133 10211 20106 51002
KSMX 011651Z 30004KT 7SM FEW012 18/13 A3010 RMK AO2 SLP194 T01780133
KSMX 011619Z 00000KT 7SM FEW009 17/13 A3010 RMK AO2 T01670133
KSMX 011551Z 00000KT 8SM BKN012 16/13 A3010 RMK AO2 SLP195 T01610133
KSMX 011511Z 29003KT 8SM BKN010 15/14 A3010 RMK AO2 T01500144
KSMX 011451Z COR 00000KT 7SM BKN012 14/14 A3009 RMK AO2 SLP193 T01390139 51019
KSMX 011431Z 00000KT 7SM R12/6000VP6000FT SCT008 13/13 A3009 RMK AO2 T01280128
KSMX 011428Z 00000KT 7SM R12/4000VP6000FT SCT001 12/12 A3009 RMK AO2 T01220122
KSMX 011415Z 00000KT 3SM R12/1400VP6000FT BR BKN001 12/12 A3008 RMK AO2 T01170117
KSMX 011413Z 00000KT 1 1/4SM R12/1400V5000FT BR BKN001 12/12 A3008 RMK AO2 T01170117
KSMX 011404Z 00000KT 1/4SM R12/0500V2400FT FG VV001 11/11 A3008 RMK AO2 T01110106
KSMX 011358Z 00000KT M1/4SM R12/0500V1200FT FG VV001 11/11 A3008 RMK AO2 T01110106
KSMX 011351Z 00000KT 1/4SM R12/0700V1400FT FG VV001 11/10 A3008 RMK AO2 SLP188 T01110100
KSMX 011342Z 00000KT 1/4SM R12/1200VP6000FT FG VV002 11/10 A3007 RMK AO2 T01060100
KSMX 011328Z 00000KT M1/4SM R12/2800VP6000FT FG VV002 11/10 A3007 RMK AO2 T01110100
KSMX 011326Z 00000KT 1/4SM R12/2800VP6000FT FG OVC001 11/10 A3007 RMK AO2 T01110100
KSMX 011319Z 00000KT 1/2SM R12/P6000FT FG OVC001 11/09 A3006 RMK AO2 VIS M1/4V5 T01110094
KSMX 011306Z 00000KT 8SM BKN001 11/09 A3006 RMK AO2 T01110094
KSMX 011251Z COR 00000KT 9SM FEW001 11/09 A3006 RMK AO2 SLP180 T01060089
KSMX 011151Z AUTO 00000KT 10SM CLR 12/10 A3004 RMK AO2 SLP172 T01220100 10144 20117 55003
KSMX 011051Z AUTO 00000KT 10SM CLR 12/10 A3003 RMK AO2 SLP172 T01220100